<?xml version="1.0" encoding="UTF-8"?>
<gpx version="1.1" creator="https://www.youtrack.es" xsi:schemaLocation="http://www.topografix.com/GPX/1/1 http://www.topografix.com/GPX/1/1/gpx.xsd http://www.garmin.com/xmlschemas/GpxExtensions/v3 http://www.garmin.com/xmlschemas/GpxExtensionsv3.xsd http://www.garmin.com/xmlschemas/TrackPointExtension/v1 http://www.garmin.com/xmlschemas/TrackPointExtensionv1.xsd" xmlns:gpxtpx="http://www.garmin.com/xmlschemas/TrackPointExtension/v1" xmlns:gpxx="http://www.garmin.com/xmlschemas/GpxExtensions/v3" xmlns:xsi="http://www.w3.org/2001/XMLSchema-instance">
  <metadata>
    <author>
      <name>Inscripciones Global-Tempo</name>
      <email id="inscripciones" domain="global-tempo.com"/>
    </author>
    <link href="https://www.youtrack.es">
      <text>YouTrack.es</text>
    </link>
    <time>2026-05-08T16:13:06Z</time>
  </metadata>
  <trk>
    <src>https://www.youtrack.es</src>
    <link href="https://www.youtrack.es/ruta/30338-ii-duatlon-de-castril">
      <text>YouTrack.es</text>
    </link>
    <trkseg>
      <trkpt lat="37.795701" lon="-2.779045">
        <ele>907.838</ele>
        <time>2022-03-22T09:02:52Z</time>
      </trkpt>
      <trkpt lat="37.795909" lon="-2.779085">
        <ele>909.870</ele>
        <time>2022-03-22T09:03:12Z</time>
      </trkpt>
      <trkpt lat="37.795909" lon="-2.779292">
        <ele>909.117</ele>
        <time>2022-03-22T09:03:32Z</time>
      </trkpt>
      <trkpt lat="37.795922" lon="-2.779503">
        <ele>906.608</ele>
        <time>2022-03-22T09:03:52Z</time>
      </trkpt>
      <trkpt lat="37.795911" lon="-2.779753">
        <ele>901.047</ele>
        <time>2022-03-22T09:04:12Z</time>
      </trkpt>
      <trkpt lat="37.795875" lon="-2.779919">
        <ele>897.398</ele>
        <time>2022-03-22T09:04:32Z</time>
      </trkpt>
      <trkpt lat="37.795860" lon="-2.780131">
        <ele>893.620</ele>
        <time>2022-03-22T09:04:52Z</time>
      </trkpt>
      <trkpt lat="37.795839" lon="-2.780257">
        <ele>891.479</ele>
        <time>2022-03-22T09:05:12Z</time>
      </trkpt>
      <trkpt lat="37.795841" lon="-2.780450">
        <ele>886.967</ele>
        <time>2022-03-22T09:05:32Z</time>
      </trkpt>
      <trkpt lat="37.795841" lon="-2.780587">
        <ele>883.581</ele>
        <time>2022-03-22T09:05:52Z</time>
      </trkpt>
      <trkpt lat="37.795934" lon="-2.780737">
        <ele>882.529</ele>
        <time>2022-03-22T09:06:12Z</time>
      </trkpt>
      <trkpt lat="37.795973" lon="-2.780799">
        <ele>882.037</ele>
        <time>2022-03-22T09:06:32Z</time>
      </trkpt>
      <trkpt lat="37.795992" lon="-2.780920">
        <ele>879.676</ele>
        <time>2022-03-22T09:06:52Z</time>
      </trkpt>
      <trkpt lat="37.796017" lon="-2.781217">
        <ele>875.790</ele>
        <time>2022-03-22T09:07:12Z</time>
      </trkpt>
      <trkpt lat="37.795956" lon="-2.781478">
        <ele>872.819</ele>
        <time>2022-03-22T09:07:32Z</time>
      </trkpt>
      <trkpt lat="37.795909" lon="-2.781735">
        <ele>869.908</ele>
        <time>2022-03-22T09:07:52Z</time>
      </trkpt>
      <trkpt lat="37.795894" lon="-2.781976">
        <ele>866.791</ele>
        <time>2022-03-22T09:08:12Z</time>
      </trkpt>
      <trkpt lat="37.795928" lon="-2.782135">
        <ele>864.412</ele>
        <time>2022-03-22T09:08:32Z</time>
      </trkpt>
      <trkpt lat="37.795945" lon="-2.782269">
        <ele>862.074</ele>
        <time>2022-03-22T09:08:52Z</time>
      </trkpt>
      <trkpt lat="37.795932" lon="-2.782408">
        <ele>858.733</ele>
        <time>2022-03-22T09:09:12Z</time>
      </trkpt>
      <trkpt lat="37.795903" lon="-2.782545">
        <ele>855.841</ele>
        <time>2022-03-22T09:09:32Z</time>
      </trkpt>
      <trkpt lat="37.795894" lon="-2.782687">
        <ele>855.235</ele>
        <time>2022-03-22T09:09:52Z</time>
      </trkpt>
      <trkpt lat="37.795928" lon="-2.782926">
        <ele>855.233</ele>
        <time>2022-03-22T09:10:12Z</time>
      </trkpt>
      <trkpt lat="37.795956" lon="-2.783135">
        <ele>853.921</ele>
        <time>2022-03-22T09:10:32Z</time>
      </trkpt>
      <trkpt lat="37.795979" lon="-2.783334">
        <ele>850.667</ele>
        <time>2022-03-22T09:10:52Z</time>
      </trkpt>
      <trkpt lat="37.795894" lon="-2.783304">
        <ele>850.281</ele>
        <time>2022-03-22T09:11:12Z</time>
      </trkpt>
      <trkpt lat="37.795511" lon="-2.782172">
        <ele>851.419</ele>
        <time>2022-03-22T09:11:32Z</time>
      </trkpt>
      <trkpt lat="37.795379" lon="-2.781864">
        <ele>854.608</ele>
        <time>2022-03-22T09:11:52Z</time>
      </trkpt>
      <trkpt lat="37.795313" lon="-2.781797">
        <ele>853.740</ele>
        <time>2022-03-22T09:12:12Z</time>
      </trkpt>
      <trkpt lat="37.795191" lon="-2.781676">
        <ele>852.221</ele>
        <time>2022-03-22T09:12:32Z</time>
      </trkpt>
      <trkpt lat="37.795106" lon="-2.781596">
        <ele>851.443</ele>
        <time>2022-03-22T09:12:52Z</time>
      </trkpt>
      <trkpt lat="37.795021" lon="-2.781550">
        <ele>850.832</ele>
        <time>2022-03-22T09:13:12Z</time>
      </trkpt>
      <trkpt lat="37.794926" lon="-2.781550">
        <ele>850.530</ele>
        <time>2022-03-22T09:13:32Z</time>
      </trkpt>
      <trkpt lat="37.794752" lon="-2.781561">
        <ele>850.074</ele>
        <time>2022-03-22T09:13:52Z</time>
      </trkpt>
      <trkpt lat="37.794540" lon="-2.781598">
        <ele>855.312</ele>
        <time>2022-03-22T09:14:12Z</time>
      </trkpt>
      <trkpt lat="37.794453" lon="-2.781601">
        <ele>857.880</ele>
        <time>2022-03-22T09:14:32Z</time>
      </trkpt>
      <trkpt lat="37.794322" lon="-2.781655">
        <ele>858.689</ele>
        <time>2022-03-22T09:14:52Z</time>
      </trkpt>
      <trkpt lat="37.794252" lon="-2.781700">
        <ele>858.606</ele>
        <time>2022-03-22T09:15:12Z</time>
      </trkpt>
      <trkpt lat="37.794180" lon="-2.781708">
        <ele>858.726</ele>
        <time>2022-03-22T09:15:32Z</time>
      </trkpt>
      <trkpt lat="37.794067" lon="-2.781738">
        <ele>855.908</ele>
        <time>2022-03-22T09:15:52Z</time>
      </trkpt>
      <trkpt lat="37.793948" lon="-2.781738">
        <ele>852.872</ele>
        <time>2022-03-22T09:16:12Z</time>
      </trkpt>
      <trkpt lat="37.793864" lon="-2.781743">
        <ele>850.963</ele>
        <time>2022-03-22T09:16:32Z</time>
      </trkpt>
      <trkpt lat="37.793790" lon="-2.781746">
        <ele>850.165</ele>
        <time>2022-03-22T09:16:52Z</time>
      </trkpt>
      <trkpt lat="37.793715" lon="-2.781783">
        <ele>848.164</ele>
        <time>2022-03-22T09:17:12Z</time>
      </trkpt>
      <trkpt lat="37.793622" lon="-2.781794">
        <ele>846.612</ele>
        <time>2022-03-22T09:17:32Z</time>
      </trkpt>
      <trkpt lat="37.793535" lon="-2.781888">
        <ele>842.416</ele>
        <time>2022-03-22T09:17:52Z</time>
      </trkpt>
      <trkpt lat="37.793482" lon="-2.781925">
        <ele>840.824</ele>
        <time>2022-03-22T09:18:12Z</time>
      </trkpt>
      <trkpt lat="37.793385" lon="-2.781982">
        <ele>840.572</ele>
        <time>2022-03-22T09:18:32Z</time>
      </trkpt>
      <trkpt lat="37.793298" lon="-2.781985">
        <ele>840.967</ele>
        <time>2022-03-22T09:18:52Z</time>
      </trkpt>
      <trkpt lat="37.793226" lon="-2.781979">
        <ele>841.981</ele>
        <time>2022-03-22T09:19:12Z</time>
      </trkpt>
      <trkpt lat="37.793177" lon="-2.782046">
        <ele>843.119</ele>
        <time>2022-03-22T09:19:32Z</time>
      </trkpt>
      <trkpt lat="37.793090" lon="-2.782094">
        <ele>844.608</ele>
        <time>2022-03-22T09:19:52Z</time>
      </trkpt>
      <trkpt lat="37.793001" lon="-2.782159">
        <ele>847.240</ele>
        <time>2022-03-22T09:20:12Z</time>
      </trkpt>
      <trkpt lat="37.792916" lon="-2.782196">
        <ele>850.231</ele>
        <time>2022-03-22T09:20:32Z</time>
      </trkpt>
      <trkpt lat="37.792874" lon="-2.782215">
        <ele>851.873</ele>
        <time>2022-03-22T09:20:52Z</time>
      </trkpt>
      <trkpt lat="37.792798" lon="-2.782199">
        <ele>853.952</ele>
        <time>2022-03-22T09:21:12Z</time>
      </trkpt>
      <trkpt lat="37.792721" lon="-2.782156">
        <ele>855.530</ele>
        <time>2022-03-22T09:21:32Z</time>
      </trkpt>
      <trkpt lat="37.792675" lon="-2.782108">
        <ele>856.064</ele>
        <time>2022-03-22T09:21:52Z</time>
      </trkpt>
      <trkpt lat="37.792639" lon="-2.782014">
        <ele>855.042</ele>
        <time>2022-03-22T09:22:12Z</time>
      </trkpt>
      <trkpt lat="37.792592" lon="-2.781952">
        <ele>854.920</ele>
        <time>2022-03-22T09:22:32Z</time>
      </trkpt>
      <trkpt lat="37.792537" lon="-2.781923">
        <ele>856.466</ele>
        <time>2022-03-22T09:22:52Z</time>
      </trkpt>
      <trkpt lat="37.792418" lon="-2.781982">
        <ele>862.929</ele>
        <time>2022-03-22T09:23:12Z</time>
      </trkpt>
      <trkpt lat="37.792028" lon="-2.781448">
        <ele>858.821</ele>
        <time>2022-03-22T09:23:32Z</time>
      </trkpt>
      <trkpt lat="37.791962" lon="-2.781343">
        <ele>857.008</ele>
        <time>2022-03-22T09:23:52Z</time>
      </trkpt>
      <trkpt lat="37.791859" lon="-2.781263">
        <ele>848.420</ele>
        <time>2022-03-22T09:24:12Z</time>
      </trkpt>
      <trkpt lat="37.791725" lon="-2.781158">
        <ele>837.931</ele>
        <time>2022-03-22T09:24:32Z</time>
      </trkpt>
      <trkpt lat="37.791564" lon="-2.781065">
        <ele>828.443</ele>
        <time>2022-03-22T09:24:52Z</time>
      </trkpt>
      <trkpt lat="37.791494" lon="-2.781022">
        <ele>824.452</ele>
        <time>2022-03-22T09:25:12Z</time>
      </trkpt>
      <trkpt lat="37.791435" lon="-2.780917">
        <ele>819.610</ele>
        <time>2022-03-22T09:25:32Z</time>
      </trkpt>
      <trkpt lat="37.791450" lon="-2.780705">
        <ele>817.474</ele>
        <time>2022-03-22T09:25:52Z</time>
      </trkpt>
      <trkpt lat="37.791369" lon="-2.780689">
        <ele>815.352</ele>
        <time>2022-03-22T09:26:12Z</time>
      </trkpt>
      <trkpt lat="37.791246" lon="-2.780705">
        <ele>814.020</ele>
        <time>2022-03-22T09:26:32Z</time>
      </trkpt>
      <trkpt lat="37.791159" lon="-2.780716">
        <ele>813.212</ele>
        <time>2022-03-22T09:26:52Z</time>
      </trkpt>
      <trkpt lat="37.791076" lon="-2.780721">
        <ele>813.232</ele>
        <time>2022-03-22T09:27:12Z</time>
      </trkpt>
      <trkpt lat="37.791032" lon="-2.780606">
        <ele>812.405</ele>
        <time>2022-03-22T09:27:32Z</time>
      </trkpt>
      <trkpt lat="37.791000" lon="-2.780322">
        <ele>813.708</ele>
        <time>2022-03-22T09:27:52Z</time>
      </trkpt>
      <trkpt lat="37.790994" lon="-2.780099">
        <ele>815.755</ele>
        <time>2022-03-22T09:28:12Z</time>
      </trkpt>
      <trkpt lat="37.790975" lon="-2.780024">
        <ele>816.386</ele>
        <time>2022-03-22T09:28:32Z</time>
      </trkpt>
      <trkpt lat="37.790917" lon="-2.779860">
        <ele>816.558</ele>
        <time>2022-03-22T09:28:52Z</time>
      </trkpt>
      <trkpt lat="37.790879" lon="-2.779613">
        <ele>816.487</ele>
        <time>2022-03-22T09:29:12Z</time>
      </trkpt>
      <trkpt lat="37.790896" lon="-2.779444">
        <ele>816.795</ele>
        <time>2022-03-22T09:29:32Z</time>
      </trkpt>
      <trkpt lat="37.790856" lon="-2.779206">
        <ele>817.289</ele>
        <time>2022-03-22T09:29:52Z</time>
      </trkpt>
      <trkpt lat="37.790845" lon="-2.779026">
        <ele>817.227</ele>
        <time>2022-03-22T09:30:12Z</time>
      </trkpt>
      <trkpt lat="37.790886" lon="-2.778742">
        <ele>816.795</ele>
        <time>2022-03-22T09:30:32Z</time>
      </trkpt>
      <trkpt lat="37.790956" lon="-2.778508">
        <ele>816.452</ele>
        <time>2022-03-22T09:30:52Z</time>
      </trkpt>
      <trkpt lat="37.791165" lon="-2.778321">
        <ele>818.053</ele>
        <time>2022-03-22T09:31:12Z</time>
      </trkpt>
      <trkpt lat="37.791310" lon="-2.778248">
        <ele>820.108</ele>
        <time>2022-03-22T09:31:32Z</time>
      </trkpt>
      <trkpt lat="37.791422" lon="-2.778149">
        <ele>821.108</ele>
        <time>2022-03-22T09:31:52Z</time>
      </trkpt>
      <trkpt lat="37.791676" lon="-2.778160">
        <ele>824.969</ele>
        <time>2022-03-22T09:32:12Z</time>
      </trkpt>
      <trkpt lat="37.791890" lon="-2.778176">
        <ele>828.850</ele>
        <time>2022-03-22T09:32:32Z</time>
      </trkpt>
      <trkpt lat="37.792030" lon="-2.778063">
        <ele>829.382</ele>
        <time>2022-03-22T09:32:52Z</time>
      </trkpt>
      <trkpt lat="37.792143" lon="-2.778015">
        <ele>830.451</ele>
        <time>2022-03-22T09:33:12Z</time>
      </trkpt>
      <trkpt lat="37.792340" lon="-2.778012">
        <ele>833.249</ele>
        <time>2022-03-22T09:33:32Z</time>
      </trkpt>
      <trkpt lat="37.792522" lon="-2.778015">
        <ele>835.713</ele>
        <time>2022-03-22T09:33:52Z</time>
      </trkpt>
      <trkpt lat="37.792694" lon="-2.778001">
        <ele>837.721</ele>
        <time>2022-03-22T09:34:12Z</time>
      </trkpt>
      <trkpt lat="37.792891" lon="-2.777953">
        <ele>840.219</ele>
        <time>2022-03-22T09:34:32Z</time>
      </trkpt>
      <trkpt lat="37.793018" lon="-2.777840">
        <ele>840.579</ele>
        <time>2022-03-22T09:34:52Z</time>
      </trkpt>
      <trkpt lat="37.793200" lon="-2.777712">
        <ele>842.205</ele>
        <time>2022-03-22T09:35:12Z</time>
      </trkpt>
      <trkpt lat="37.793317" lon="-2.777604">
        <ele>843.125</ele>
        <time>2022-03-22T09:35:32Z</time>
      </trkpt>
      <trkpt lat="37.793446" lon="-2.777527">
        <ele>844.508</ele>
        <time>2022-03-22T09:35:52Z</time>
      </trkpt>
      <trkpt lat="37.793561" lon="-2.777513">
        <ele>846.311</ele>
        <time>2022-03-22T09:36:12Z</time>
      </trkpt>
      <trkpt lat="37.793696" lon="-2.777465">
        <ele>848.492</ele>
        <time>2022-03-22T09:36:32Z</time>
      </trkpt>
      <trkpt lat="37.793811" lon="-2.777449">
        <ele>850.564</ele>
        <time>2022-03-22T09:36:52Z</time>
      </trkpt>
      <trkpt lat="37.793957" lon="-2.777462">
        <ele>853.543</ele>
        <time>2022-03-22T09:37:12Z</time>
      </trkpt>
      <trkpt lat="37.794069" lon="-2.777478">
        <ele>855.871</ele>
        <time>2022-03-22T09:37:32Z</time>
      </trkpt>
      <trkpt lat="37.794292" lon="-2.777516">
        <ele>860.535</ele>
        <time>2022-03-22T09:37:52Z</time>
      </trkpt>
      <trkpt lat="37.794536" lon="-2.777578">
        <ele>866.823</ele>
        <time>2022-03-22T09:38:12Z</time>
      </trkpt>
      <trkpt lat="37.794801" lon="-2.777701">
        <ele>874.681</ele>
        <time>2022-03-22T09:38:32Z</time>
      </trkpt>
      <trkpt lat="37.794968" lon="-2.777787">
        <ele>878.453</ele>
        <time>2022-03-22T09:38:52Z</time>
      </trkpt>
      <trkpt lat="37.795184" lon="-2.777937">
        <ele>886.904</ele>
        <time>2022-03-22T09:39:12Z</time>
      </trkpt>
      <trkpt lat="37.795267" lon="-2.778031">
        <ele>891.114</ele>
        <time>2022-03-22T09:39:32Z</time>
      </trkpt>
      <trkpt lat="37.795301" lon="-2.778114">
        <ele>893.808</ele>
        <time>2022-03-22T09:39:52Z</time>
      </trkpt>
      <trkpt lat="37.795303" lon="-2.778189">
        <ele>896.039</ele>
        <time>2022-03-22T09:40:12Z</time>
      </trkpt>
      <trkpt lat="37.795229" lon="-2.778216">
        <ele>896.020</ele>
        <time>2022-03-22T09:40:32Z</time>
      </trkpt>
      <trkpt lat="37.795093" lon="-2.778221">
        <ele>894.462</ele>
        <time>2022-03-22T09:40:52Z</time>
      </trkpt>
      <trkpt lat="37.795015" lon="-2.778270">
        <ele>894.671</ele>
        <time>2022-03-22T09:41:12Z</time>
      </trkpt>
      <trkpt lat="37.795008" lon="-2.778447">
        <ele>898.689</ele>
        <time>2022-03-22T09:41:32Z</time>
      </trkpt>
      <trkpt lat="37.795104" lon="-2.778473">
        <ele>900.343</ele>
        <time>2022-03-22T09:41:52Z</time>
      </trkpt>
      <trkpt lat="37.795127" lon="-2.778583">
        <ele>902.871</ele>
        <time>2022-03-22T09:42:12Z</time>
      </trkpt>
      <trkpt lat="37.795167" lon="-2.778624">
        <ele>903.989</ele>
        <time>2022-03-22T09:42:32Z</time>
      </trkpt>
      <trkpt lat="37.795265" lon="-2.778581">
        <ele>904.397</ele>
        <time>2022-03-22T09:42:52Z</time>
      </trkpt>
      <trkpt lat="37.795369" lon="-2.778503">
        <ele>903.223</ele>
        <time>2022-03-22T09:43:12Z</time>
      </trkpt>
      <trkpt lat="37.795434" lon="-2.778463">
        <ele>902.625</ele>
        <time>2022-03-22T09:43:32Z</time>
      </trkpt>
      <trkpt lat="37.795400" lon="-2.778318">
        <ele>900.008</ele>
        <time>2022-03-22T09:43:52Z</time>
      </trkpt>
      <trkpt lat="37.795523" lon="-2.778280">
        <ele>899.513</ele>
        <time>2022-03-22T09:44:12Z</time>
      </trkpt>
      <trkpt lat="37.795665" lon="-2.778219">
        <ele>899.414</ele>
        <time>2022-03-22T09:44:32Z</time>
      </trkpt>
      <trkpt lat="37.795778" lon="-2.778127">
        <ele>899.256</ele>
        <time>2022-03-22T09:44:52Z</time>
      </trkpt>
      <trkpt lat="37.795898" lon="-2.777959">
        <ele>897.955</ele>
        <time>2022-03-22T09:45:12Z</time>
      </trkpt>
      <trkpt lat="37.795983" lon="-2.777851">
        <ele>897.483</ele>
        <time>2022-03-22T09:45:32Z</time>
      </trkpt>
      <trkpt lat="37.796146" lon="-2.777747">
        <ele>899.217</ele>
        <time>2022-03-22T09:45:52Z</time>
      </trkpt>
      <trkpt lat="37.796229" lon="-2.777800">
        <ele>901.875</ele>
        <time>2022-03-22T09:46:12Z</time>
      </trkpt>
      <trkpt lat="37.796174" lon="-2.777921">
        <ele>901.983</ele>
        <time>2022-03-22T09:46:32Z</time>
      </trkpt>
      <trkpt lat="37.795799" lon="-2.778449">
        <ele>904.131</ele>
        <time>2022-03-22T09:46:52Z</time>
      </trkpt>
      <trkpt lat="37.795903" lon="-2.778543">
        <ele>905.861</ele>
        <time>2022-03-22T09:47:12Z</time>
      </trkpt>
      <trkpt lat="37.796291" lon="-2.778001">
        <ele>905.307</ele>
        <time>2022-03-22T09:47:32Z</time>
      </trkpt>
      <trkpt lat="37.796399" lon="-2.777924">
        <ele>906.908</ele>
        <time>2022-03-22T09:47:52Z</time>
      </trkpt>
      <trkpt lat="37.796469" lon="-2.778018">
        <ele>910.387</ele>
        <time>2022-03-22T09:48:12Z</time>
      </trkpt>
      <trkpt lat="37.796316" lon="-2.778366">
        <ele>910.088</ele>
        <time>2022-03-22T09:48:32Z</time>
      </trkpt>
      <trkpt lat="37.796265" lon="-2.778522">
        <ele>910.530</ele>
        <time>2022-03-22T09:48:52Z</time>
      </trkpt>
      <trkpt lat="37.795911" lon="-2.778557">
        <ele>906.029</ele>
        <time>2022-03-22T09:49:12Z</time>
      </trkpt>
      <trkpt lat="37.795858" lon="-2.778632">
        <ele>906.317</ele>
        <time>2022-03-22T09:49:32Z</time>
      </trkpt>
      <trkpt lat="37.795566" lon="-2.778624">
        <ele>905.121</ele>
        <time>2022-03-22T09:49:52Z</time>
      </trkpt>
      <trkpt lat="37.795432" lon="-2.778693">
        <ele>905.699</ele>
        <time>2022-03-22T09:50:12Z</time>
      </trkpt>
      <trkpt lat="37.795231" lon="-2.778828">
        <ele>906.347</ele>
        <time>2022-03-22T09:50:32Z</time>
      </trkpt>
      <trkpt lat="37.795034" lon="-2.778946">
        <ele>906.365</ele>
        <time>2022-03-22T09:50:52Z</time>
      </trkpt>
      <trkpt lat="37.794945" lon="-2.779211">
        <ele>906.468</ele>
        <time>2022-03-22T09:51:12Z</time>
      </trkpt>
      <trkpt lat="37.794739" lon="-2.779131">
        <ele>906.514</ele>
        <time>2022-03-22T09:51:32Z</time>
      </trkpt>
      <trkpt lat="37.794548" lon="-2.779018">
        <ele>902.608</ele>
        <time>2022-03-22T09:51:52Z</time>
      </trkpt>
      <trkpt lat="37.794529" lon="-2.778975">
        <ele>901.760</ele>
        <time>2022-03-22T09:52:12Z</time>
      </trkpt>
      <trkpt lat="37.794296" lon="-2.779080">
        <ele>900.011</ele>
        <time>2022-03-22T09:52:32Z</time>
      </trkpt>
      <trkpt lat="37.794338" lon="-2.779284">
        <ele>902.923</ele>
        <time>2022-03-22T09:52:52Z</time>
      </trkpt>
      <trkpt lat="37.794196" lon="-2.779321">
        <ele>902.442</ele>
        <time>2022-03-22T09:53:12Z</time>
      </trkpt>
      <trkpt lat="37.793953" lon="-2.779426">
        <ele>902.010</ele>
        <time>2022-03-22T09:53:32Z</time>
      </trkpt>
      <trkpt lat="37.793781" lon="-2.779544">
        <ele>901.034</ele>
        <time>2022-03-22T09:53:52Z</time>
      </trkpt>
      <trkpt lat="37.793461" lon="-2.779981">
        <ele>901.022</ele>
        <time>2022-03-22T09:54:12Z</time>
      </trkpt>
      <trkpt lat="37.793433" lon="-2.780091">
        <ele>903.450</ele>
        <time>2022-03-22T09:54:32Z</time>
      </trkpt>
      <trkpt lat="37.793455" lon="-2.780131">
        <ele>905.973</ele>
        <time>2022-03-22T09:54:52Z</time>
      </trkpt>
      <trkpt lat="37.793556" lon="-2.779997">
        <ele>905.585</ele>
        <time>2022-03-22T09:55:12Z</time>
      </trkpt>
      <trkpt lat="37.793660" lon="-2.779847">
        <ele>905.313</ele>
        <time>2022-03-22T09:55:32Z</time>
      </trkpt>
      <trkpt lat="37.793796" lon="-2.779697">
        <ele>905.408</ele>
        <time>2022-03-22T09:55:52Z</time>
      </trkpt>
      <trkpt lat="37.793902" lon="-2.779624">
        <ele>906.571</ele>
        <time>2022-03-22T09:56:12Z</time>
      </trkpt>
      <trkpt lat="37.794021" lon="-2.779584">
        <ele>905.822</ele>
        <time>2022-03-22T09:56:32Z</time>
      </trkpt>
      <trkpt lat="37.794180" lon="-2.779525">
        <ele>905.144</ele>
        <time>2022-03-22T09:56:52Z</time>
      </trkpt>
      <trkpt lat="37.794243" lon="-2.779410">
        <ele>903.483</ele>
        <time>2022-03-22T09:57:12Z</time>
      </trkpt>
      <trkpt lat="37.794464" lon="-2.779391">
        <ele>903.391</ele>
        <time>2022-03-22T09:57:32Z</time>
      </trkpt>
      <trkpt lat="37.794480" lon="-2.779340">
        <ele>903.655</ele>
        <time>2022-03-22T09:57:52Z</time>
      </trkpt>
      <trkpt lat="37.794720" lon="-2.779254">
        <ele>906.073</ele>
        <time>2022-03-22T09:58:12Z</time>
      </trkpt>
      <trkpt lat="37.794883" lon="-2.779343">
        <ele>904.771</ele>
        <time>2022-03-22T09:58:32Z</time>
      </trkpt>
      <trkpt lat="37.795015" lon="-2.779439">
        <ele>903.168</ele>
        <time>2022-03-22T09:58:52Z</time>
      </trkpt>
      <trkpt lat="37.795116" lon="-2.779455">
        <ele>902.842</ele>
        <time>2022-03-22T09:59:12Z</time>
      </trkpt>
      <trkpt lat="37.795227" lon="-2.779461">
        <ele>902.626</ele>
        <time>2022-03-22T09:59:32Z</time>
      </trkpt>
      <trkpt lat="37.795273" lon="-2.779364">
        <ele>904.208</ele>
        <time>2022-03-22T09:59:52Z</time>
      </trkpt>
      <trkpt lat="37.795311" lon="-2.779337">
        <ele>904.620</ele>
        <time>2022-03-22T10:00:12Z</time>
      </trkpt>
      <trkpt lat="37.795328" lon="-2.779294">
        <ele>905.251</ele>
        <time>2022-03-22T10:00:32Z</time>
      </trkpt>
      <trkpt lat="37.795335" lon="-2.779233">
        <ele>906.123</ele>
        <time>2022-03-22T10:00:52Z</time>
      </trkpt>
      <trkpt lat="37.795324" lon="-2.779171">
        <ele>906.922</ele>
        <time>2022-03-22T10:01:12Z</time>
      </trkpt>
      <trkpt lat="37.795553" lon="-2.779061">
        <ele>907.030</ele>
        <time>2022-03-22T10:01:32Z</time>
      </trkpt>
      <trkpt lat="37.795701" lon="-2.779026">
        <ele>907.874</ele>
        <time>2022-03-22T10:01:52Z</time>
      </trkpt>
      <trkpt lat="37.795701" lon="-2.779045">
        <ele>907.838</ele>
        <time>2022-03-22T09:02:52Z</time>
      </trkpt>
      <trkpt lat="37.795909" lon="-2.779085">
        <ele>909.870</ele>
        <time>2022-03-22T09:03:12Z</time>
      </trkpt>
      <trkpt lat="37.795909" lon="-2.779292">
        <ele>909.117</ele>
        <time>2022-03-22T09:03:32Z</time>
      </trkpt>
      <trkpt lat="37.795922" lon="-2.779503">
        <ele>906.608</ele>
        <time>2022-03-22T09:03:52Z</time>
      </trkpt>
      <trkpt lat="37.795911" lon="-2.779753">
        <ele>901.047</ele>
        <time>2022-03-22T09:04:12Z</time>
      </trkpt>
      <trkpt lat="37.795875" lon="-2.779919">
        <ele>897.398</ele>
        <time>2022-03-22T09:04:32Z</time>
      </trkpt>
      <trkpt lat="37.795860" lon="-2.780131">
        <ele>893.620</ele>
        <time>2022-03-22T09:04:52Z</time>
      </trkpt>
      <trkpt lat="37.795839" lon="-2.780257">
        <ele>891.479</ele>
        <time>2022-03-22T09:05:12Z</time>
      </trkpt>
      <trkpt lat="37.795841" lon="-2.780450">
        <ele>886.967</ele>
        <time>2022-03-22T09:05:32Z</time>
      </trkpt>
      <trkpt lat="37.795841" lon="-2.780587">
        <ele>883.581</ele>
        <time>2022-03-22T09:05:52Z</time>
      </trkpt>
      <trkpt lat="37.795934" lon="-2.780737">
        <ele>882.529</ele>
        <time>2022-03-22T09:06:12Z</time>
      </trkpt>
      <trkpt lat="37.795973" lon="-2.780799">
        <ele>882.037</ele>
        <time>2022-03-22T09:06:32Z</time>
      </trkpt>
      <trkpt lat="37.795992" lon="-2.780920">
        <ele>879.676</ele>
        <time>2022-03-22T09:06:52Z</time>
      </trkpt>
      <trkpt lat="37.796017" lon="-2.781217">
        <ele>875.790</ele>
        <time>2022-03-22T09:07:12Z</time>
      </trkpt>
      <trkpt lat="37.795956" lon="-2.781478">
        <ele>872.819</ele>
        <time>2022-03-22T09:07:32Z</time>
      </trkpt>
      <trkpt lat="37.795909" lon="-2.781735">
        <ele>869.908</ele>
        <time>2022-03-22T09:07:52Z</time>
      </trkpt>
      <trkpt lat="37.795894" lon="-2.781976">
        <ele>866.791</ele>
        <time>2022-03-22T09:08:12Z</time>
      </trkpt>
      <trkpt lat="37.795928" lon="-2.782135">
        <ele>864.412</ele>
        <time>2022-03-22T09:08:32Z</time>
      </trkpt>
      <trkpt lat="37.795945" lon="-2.782269">
        <ele>862.074</ele>
        <time>2022-03-22T09:08:52Z</time>
      </trkpt>
      <trkpt lat="37.795932" lon="-2.782408">
        <ele>858.733</ele>
        <time>2022-03-22T09:09:12Z</time>
      </trkpt>
      <trkpt lat="37.795903" lon="-2.782545">
        <ele>855.841</ele>
        <time>2022-03-22T09:09:32Z</time>
      </trkpt>
      <trkpt lat="37.795894" lon="-2.782687">
        <ele>855.235</ele>
        <time>2022-03-22T09:09:52Z</time>
      </trkpt>
      <trkpt lat="37.795928" lon="-2.782926">
        <ele>855.233</ele>
        <time>2022-03-22T09:10:12Z</time>
      </trkpt>
      <trkpt lat="37.795956" lon="-2.783135">
        <ele>853.921</ele>
        <time>2022-03-22T09:10:32Z</time>
      </trkpt>
      <trkpt lat="37.795979" lon="-2.783334">
        <ele>850.667</ele>
        <time>2022-03-22T09:10:52Z</time>
      </trkpt>
      <trkpt lat="37.795894" lon="-2.783304">
        <ele>850.281</ele>
        <time>2022-03-22T09:11:12Z</time>
      </trkpt>
      <trkpt lat="37.795511" lon="-2.782172">
        <ele>851.419</ele>
        <time>2022-03-22T09:11:32Z</time>
      </trkpt>
      <trkpt lat="37.795379" lon="-2.781864">
        <ele>854.608</ele>
        <time>2022-03-22T09:11:52Z</time>
      </trkpt>
      <trkpt lat="37.795313" lon="-2.781797">
        <ele>853.740</ele>
        <time>2022-03-22T09:12:12Z</time>
      </trkpt>
      <trkpt lat="37.795191" lon="-2.781676">
        <ele>852.221</ele>
        <time>2022-03-22T09:12:32Z</time>
      </trkpt>
      <trkpt lat="37.795106" lon="-2.781596">
        <ele>851.443</ele>
        <time>2022-03-22T09:12:52Z</time>
      </trkpt>
      <trkpt lat="37.795021" lon="-2.781550">
        <ele>850.832</ele>
        <time>2022-03-22T09:13:12Z</time>
      </trkpt>
      <trkpt lat="37.794926" lon="-2.781550">
        <ele>850.530</ele>
        <time>2022-03-22T09:13:32Z</time>
      </trkpt>
      <trkpt lat="37.794752" lon="-2.781561">
        <ele>850.074</ele>
        <time>2022-03-22T09:13:52Z</time>
      </trkpt>
      <trkpt lat="37.794540" lon="-2.781598">
        <ele>855.312</ele>
        <time>2022-03-22T09:14:12Z</time>
      </trkpt>
      <trkpt lat="37.794453" lon="-2.781601">
        <ele>857.880</ele>
        <time>2022-03-22T09:14:32Z</time>
      </trkpt>
      <trkpt lat="37.794322" lon="-2.781655">
        <ele>858.689</ele>
        <time>2022-03-22T09:14:52Z</time>
      </trkpt>
      <trkpt lat="37.794252" lon="-2.781700">
        <ele>858.606</ele>
        <time>2022-03-22T09:15:12Z</time>
      </trkpt>
      <trkpt lat="37.794180" lon="-2.781708">
        <ele>858.726</ele>
        <time>2022-03-22T09:15:32Z</time>
      </trkpt>
      <trkpt lat="37.794067" lon="-2.781738">
        <ele>855.908</ele>
        <time>2022-03-22T09:15:52Z</time>
      </trkpt>
      <trkpt lat="37.793948" lon="-2.781738">
        <ele>852.872</ele>
        <time>2022-03-22T09:16:12Z</time>
      </trkpt>
      <trkpt lat="37.793864" lon="-2.781743">
        <ele>850.963</ele>
        <time>2022-03-22T09:16:32Z</time>
      </trkpt>
      <trkpt lat="37.793790" lon="-2.781746">
        <ele>850.165</ele>
        <time>2022-03-22T09:16:52Z</time>
      </trkpt>
      <trkpt lat="37.793715" lon="-2.781783">
        <ele>848.164</ele>
        <time>2022-03-22T09:17:12Z</time>
      </trkpt>
      <trkpt lat="37.793622" lon="-2.781794">
        <ele>846.612</ele>
        <time>2022-03-22T09:17:32Z</time>
      </trkpt>
      <trkpt lat="37.793535" lon="-2.781888">
        <ele>842.416</ele>
        <time>2022-03-22T09:17:52Z</time>
      </trkpt>
      <trkpt lat="37.793482" lon="-2.781925">
        <ele>840.824</ele>
        <time>2022-03-22T09:18:12Z</time>
      </trkpt>
      <trkpt lat="37.793385" lon="-2.781982">
        <ele>840.572</ele>
        <time>2022-03-22T09:18:32Z</time>
      </trkpt>
      <trkpt lat="37.793298" lon="-2.781985">
        <ele>840.967</ele>
        <time>2022-03-22T09:18:52Z</time>
      </trkpt>
      <trkpt lat="37.793226" lon="-2.781979">
        <ele>841.981</ele>
        <time>2022-03-22T09:19:12Z</time>
      </trkpt>
      <trkpt lat="37.793177" lon="-2.782046">
        <ele>843.119</ele>
        <time>2022-03-22T09:19:32Z</time>
      </trkpt>
      <trkpt lat="37.793090" lon="-2.782094">
        <ele>844.608</ele>
        <time>2022-03-22T09:19:52Z</time>
      </trkpt>
      <trkpt lat="37.793001" lon="-2.782159">
        <ele>847.240</ele>
        <time>2022-03-22T09:20:12Z</time>
      </trkpt>
      <trkpt lat="37.792916" lon="-2.782196">
        <ele>850.231</ele>
        <time>2022-03-22T09:20:32Z</time>
      </trkpt>
      <trkpt lat="37.792874" lon="-2.782215">
        <ele>851.873</ele>
        <time>2022-03-22T09:20:52Z</time>
      </trkpt>
      <trkpt lat="37.792798" lon="-2.782199">
        <ele>853.952</ele>
        <time>2022-03-22T09:21:12Z</time>
      </trkpt>
      <trkpt lat="37.792721" lon="-2.782156">
        <ele>855.530</ele>
        <time>2022-03-22T09:21:32Z</time>
      </trkpt>
      <trkpt lat="37.792675" lon="-2.782108">
        <ele>856.064</ele>
        <time>2022-03-22T09:21:52Z</time>
      </trkpt>
      <trkpt lat="37.792639" lon="-2.782014">
        <ele>855.042</ele>
        <time>2022-03-22T09:22:12Z</time>
      </trkpt>
      <trkpt lat="37.792592" lon="-2.781952">
        <ele>854.920</ele>
        <time>2022-03-22T09:22:32Z</time>
      </trkpt>
      <trkpt lat="37.792537" lon="-2.781923">
        <ele>856.466</ele>
        <time>2022-03-22T09:22:52Z</time>
      </trkpt>
      <trkpt lat="37.792418" lon="-2.781982">
        <ele>862.929</ele>
        <time>2022-03-22T09:23:12Z</time>
      </trkpt>
      <trkpt lat="37.792028" lon="-2.781448">
        <ele>858.821</ele>
        <time>2022-03-22T09:23:32Z</time>
      </trkpt>
      <trkpt lat="37.791962" lon="-2.781343">
        <ele>857.008</ele>
        <time>2022-03-22T09:23:52Z</time>
      </trkpt>
      <trkpt lat="37.791859" lon="-2.781263">
        <ele>848.420</ele>
        <time>2022-03-22T09:24:12Z</time>
      </trkpt>
      <trkpt lat="37.791725" lon="-2.781158">
        <ele>837.931</ele>
        <time>2022-03-22T09:24:32Z</time>
      </trkpt>
      <trkpt lat="37.791564" lon="-2.781065">
        <ele>828.443</ele>
        <time>2022-03-22T09:24:52Z</time>
      </trkpt>
      <trkpt lat="37.791494" lon="-2.781022">
        <ele>824.452</ele>
        <time>2022-03-22T09:25:12Z</time>
      </trkpt>
      <trkpt lat="37.791435" lon="-2.780917">
        <ele>819.610</ele>
        <time>2022-03-22T09:25:32Z</time>
      </trkpt>
      <trkpt lat="37.791450" lon="-2.780705">
        <ele>817.474</ele>
        <time>2022-03-22T09:25:52Z</time>
      </trkpt>
      <trkpt lat="37.791369" lon="-2.780689">
        <ele>815.352</ele>
        <time>2022-03-22T09:26:12Z</time>
      </trkpt>
      <trkpt lat="37.791246" lon="-2.780705">
        <ele>814.020</ele>
        <time>2022-03-22T09:26:32Z</time>
      </trkpt>
      <trkpt lat="37.791159" lon="-2.780716">
        <ele>813.212</ele>
        <time>2022-03-22T09:26:52Z</time>
      </trkpt>
      <trkpt lat="37.791076" lon="-2.780721">
        <ele>813.232</ele>
        <time>2022-03-22T09:27:12Z</time>
      </trkpt>
      <trkpt lat="37.791032" lon="-2.780606">
        <ele>812.405</ele>
        <time>2022-03-22T09:27:32Z</time>
      </trkpt>
      <trkpt lat="37.791000" lon="-2.780322">
        <ele>813.708</ele>
        <time>2022-03-22T09:27:52Z</time>
      </trkpt>
      <trkpt lat="37.790994" lon="-2.780099">
        <ele>815.755</ele>
        <time>2022-03-22T09:28:12Z</time>
      </trkpt>
      <trkpt lat="37.790975" lon="-2.780024">
        <ele>816.386</ele>
        <time>2022-03-22T09:28:32Z</time>
      </trkpt>
      <trkpt lat="37.790917" lon="-2.779860">
        <ele>816.558</ele>
        <time>2022-03-22T09:28:52Z</time>
      </trkpt>
      <trkpt lat="37.790879" lon="-2.779613">
        <ele>816.487</ele>
        <time>2022-03-22T09:29:12Z</time>
      </trkpt>
      <trkpt lat="37.790896" lon="-2.779444">
        <ele>816.795</ele>
        <time>2022-03-22T09:29:32Z</time>
      </trkpt>
      <trkpt lat="37.790856" lon="-2.779206">
        <ele>817.289</ele>
        <time>2022-03-22T09:29:52Z</time>
      </trkpt>
      <trkpt lat="37.790845" lon="-2.779026">
        <ele>817.227</ele>
        <time>2022-03-22T09:30:12Z</time>
      </trkpt>
      <trkpt lat="37.790886" lon="-2.778742">
        <ele>816.795</ele>
        <time>2022-03-22T09:30:32Z</time>
      </trkpt>
      <trkpt lat="37.790956" lon="-2.778508">
        <ele>816.452</ele>
        <time>2022-03-22T09:30:52Z</time>
      </trkpt>
      <trkpt lat="37.791165" lon="-2.778321">
        <ele>818.053</ele>
        <time>2022-03-22T09:31:12Z</time>
      </trkpt>
      <trkpt lat="37.791310" lon="-2.778248">
        <ele>820.108</ele>
        <time>2022-03-22T09:31:32Z</time>
      </trkpt>
      <trkpt lat="37.791422" lon="-2.778149">
        <ele>821.108</ele>
        <time>2022-03-22T09:31:52Z</time>
      </trkpt>
      <trkpt lat="37.791676" lon="-2.778160">
        <ele>824.969</ele>
        <time>2022-03-22T09:32:12Z</time>
      </trkpt>
      <trkpt lat="37.791890" lon="-2.778176">
        <ele>828.850</ele>
        <time>2022-03-22T09:32:32Z</time>
      </trkpt>
      <trkpt lat="37.792030" lon="-2.778063">
        <ele>829.382</ele>
        <time>2022-03-22T09:32:52Z</time>
      </trkpt>
      <trkpt lat="37.792143" lon="-2.778015">
        <ele>830.451</ele>
        <time>2022-03-22T09:33:12Z</time>
      </trkpt>
      <trkpt lat="37.792340" lon="-2.778012">
        <ele>833.249</ele>
        <time>2022-03-22T09:33:32Z</time>
      </trkpt>
      <trkpt lat="37.792522" lon="-2.778015">
        <ele>835.713</ele>
        <time>2022-03-22T09:33:52Z</time>
      </trkpt>
      <trkpt lat="37.792694" lon="-2.778001">
        <ele>837.721</ele>
        <time>2022-03-22T09:34:12Z</time>
      </trkpt>
      <trkpt lat="37.792891" lon="-2.777953">
        <ele>840.219</ele>
        <time>2022-03-22T09:34:32Z</time>
      </trkpt>
      <trkpt lat="37.793018" lon="-2.777840">
        <ele>840.579</ele>
        <time>2022-03-22T09:34:52Z</time>
      </trkpt>
      <trkpt lat="37.793200" lon="-2.777712">
        <ele>842.205</ele>
        <time>2022-03-22T09:35:12Z</time>
      </trkpt>
      <trkpt lat="37.793317" lon="-2.777604">
        <ele>843.125</ele>
        <time>2022-03-22T09:35:32Z</time>
      </trkpt>
      <trkpt lat="37.793446" lon="-2.777527">
        <ele>844.508</ele>
        <time>2022-03-22T09:35:52Z</time>
      </trkpt>
      <trkpt lat="37.793561" lon="-2.777513">
        <ele>846.311</ele>
        <time>2022-03-22T09:36:12Z</time>
      </trkpt>
      <trkpt lat="37.793696" lon="-2.777465">
        <ele>848.492</ele>
        <time>2022-03-22T09:36:32Z</time>
      </trkpt>
      <trkpt lat="37.793811" lon="-2.777449">
        <ele>850.564</ele>
        <time>2022-03-22T09:36:52Z</time>
      </trkpt>
      <trkpt lat="37.793957" lon="-2.777462">
        <ele>853.543</ele>
        <time>2022-03-22T09:37:12Z</time>
      </trkpt>
      <trkpt lat="37.794069" lon="-2.777478">
        <ele>855.871</ele>
        <time>2022-03-22T09:37:32Z</time>
      </trkpt>
      <trkpt lat="37.794292" lon="-2.777516">
        <ele>860.535</ele>
        <time>2022-03-22T09:37:52Z</time>
      </trkpt>
      <trkpt lat="37.794536" lon="-2.777578">
        <ele>866.823</ele>
        <time>2022-03-22T09:38:12Z</time>
      </trkpt>
      <trkpt lat="37.794801" lon="-2.777701">
        <ele>874.681</ele>
        <time>2022-03-22T09:38:32Z</time>
      </trkpt>
      <trkpt lat="37.794968" lon="-2.777787">
        <ele>878.453</ele>
        <time>2022-03-22T09:38:52Z</time>
      </trkpt>
      <trkpt lat="37.795184" lon="-2.777937">
        <ele>886.904</ele>
        <time>2022-03-22T09:39:12Z</time>
      </trkpt>
      <trkpt lat="37.795267" lon="-2.778031">
        <ele>891.114</ele>
        <time>2022-03-22T09:39:32Z</time>
      </trkpt>
      <trkpt lat="37.795301" lon="-2.778114">
        <ele>893.808</ele>
        <time>2022-03-22T09:39:52Z</time>
      </trkpt>
      <trkpt lat="37.795303" lon="-2.778189">
        <ele>896.039</ele>
        <time>2022-03-22T09:40:12Z</time>
      </trkpt>
      <trkpt lat="37.795229" lon="-2.778216">
        <ele>896.020</ele>
        <time>2022-03-22T09:40:32Z</time>
      </trkpt>
      <trkpt lat="37.795093" lon="-2.778221">
        <ele>894.462</ele>
        <time>2022-03-22T09:40:52Z</time>
      </trkpt>
      <trkpt lat="37.795015" lon="-2.778270">
        <ele>894.671</ele>
        <time>2022-03-22T09:41:12Z</time>
      </trkpt>
      <trkpt lat="37.795008" lon="-2.778447">
        <ele>898.689</ele>
        <time>2022-03-22T09:41:32Z</time>
      </trkpt>
      <trkpt lat="37.795104" lon="-2.778473">
        <ele>900.343</ele>
        <time>2022-03-22T09:41:52Z</time>
      </trkpt>
      <trkpt lat="37.795127" lon="-2.778583">
        <ele>902.871</ele>
        <time>2022-03-22T09:42:12Z</time>
      </trkpt>
      <trkpt lat="37.795167" lon="-2.778624">
        <ele>903.989</ele>
        <time>2022-03-22T09:42:32Z</time>
      </trkpt>
      <trkpt lat="37.795265" lon="-2.778581">
        <ele>904.397</ele>
        <time>2022-03-22T09:42:52Z</time>
      </trkpt>
      <trkpt lat="37.795369" lon="-2.778503">
        <ele>903.223</ele>
        <time>2022-03-22T09:43:12Z</time>
      </trkpt>
      <trkpt lat="37.795434" lon="-2.778463">
        <ele>902.625</ele>
        <time>2022-03-22T09:43:32Z</time>
      </trkpt>
      <trkpt lat="37.795400" lon="-2.778318">
        <ele>900.008</ele>
        <time>2022-03-22T09:43:52Z</time>
      </trkpt>
      <trkpt lat="37.795523" lon="-2.778280">
        <ele>899.513</ele>
        <time>2022-03-22T09:44:12Z</time>
      </trkpt>
      <trkpt lat="37.795665" lon="-2.778219">
        <ele>899.414</ele>
        <time>2022-03-22T09:44:32Z</time>
      </trkpt>
      <trkpt lat="37.795778" lon="-2.778127">
        <ele>899.256</ele>
        <time>2022-03-22T09:44:52Z</time>
      </trkpt>
      <trkpt lat="37.795898" lon="-2.777959">
        <ele>897.955</ele>
        <time>2022-03-22T09:45:12Z</time>
      </trkpt>
      <trkpt lat="37.795983" lon="-2.777851">
        <ele>897.483</ele>
        <time>2022-03-22T09:45:32Z</time>
      </trkpt>
      <trkpt lat="37.796146" lon="-2.777747">
        <ele>899.217</ele>
        <time>2022-03-22T09:45:52Z</time>
      </trkpt>
      <trkpt lat="37.796229" lon="-2.777800">
        <ele>901.875</ele>
        <time>2022-03-22T09:46:12Z</time>
      </trkpt>
      <trkpt lat="37.796174" lon="-2.777921">
        <ele>901.983</ele>
        <time>2022-03-22T09:46:32Z</time>
      </trkpt>
      <trkpt lat="37.795799" lon="-2.778449">
        <ele>904.131</ele>
        <time>2022-03-22T09:46:52Z</time>
      </trkpt>
      <trkpt lat="37.795903" lon="-2.778543">
        <ele>905.861</ele>
        <time>2022-03-22T09:47:12Z</time>
      </trkpt>
      <trkpt lat="37.796291" lon="-2.778001">
        <ele>905.307</ele>
        <time>2022-03-22T09:47:32Z</time>
      </trkpt>
      <trkpt lat="37.796399" lon="-2.777924">
        <ele>906.908</ele>
        <time>2022-03-22T09:47:52Z</time>
      </trkpt>
      <trkpt lat="37.796469" lon="-2.778018">
        <ele>910.387</ele>
        <time>2022-03-22T09:48:12Z</time>
      </trkpt>
      <trkpt lat="37.796316" lon="-2.778366">
        <ele>910.088</ele>
        <time>2022-03-22T09:48:32Z</time>
      </trkpt>
      <trkpt lat="37.796265" lon="-2.778522">
        <ele>910.530</ele>
        <time>2022-03-22T09:48:52Z</time>
      </trkpt>
      <trkpt lat="37.795911" lon="-2.778557">
        <ele>906.029</ele>
        <time>2022-03-22T09:49:12Z</time>
      </trkpt>
      <trkpt lat="37.795858" lon="-2.778632">
        <ele>906.317</ele>
        <time>2022-03-22T09:49:32Z</time>
      </trkpt>
      <trkpt lat="37.795566" lon="-2.778624">
        <ele>905.121</ele>
        <time>2022-03-22T09:49:52Z</time>
      </trkpt>
      <trkpt lat="37.795432" lon="-2.778693">
        <ele>905.699</ele>
        <time>2022-03-22T09:50:12Z</time>
      </trkpt>
      <trkpt lat="37.795231" lon="-2.778828">
        <ele>906.347</ele>
        <time>2022-03-22T09:50:32Z</time>
      </trkpt>
      <trkpt lat="37.795034" lon="-2.778946">
        <ele>906.365</ele>
        <time>2022-03-22T09:50:52Z</time>
      </trkpt>
      <trkpt lat="37.794945" lon="-2.779211">
        <ele>906.468</ele>
        <time>2022-03-22T09:51:12Z</time>
      </trkpt>
      <trkpt lat="37.794739" lon="-2.779131">
        <ele>906.514</ele>
        <time>2022-03-22T09:51:32Z</time>
      </trkpt>
      <trkpt lat="37.794548" lon="-2.779018">
        <ele>902.608</ele>
        <time>2022-03-22T09:51:52Z</time>
      </trkpt>
      <trkpt lat="37.794529" lon="-2.778975">
        <ele>901.760</ele>
        <time>2022-03-22T09:52:12Z</time>
      </trkpt>
      <trkpt lat="37.794296" lon="-2.779080">
        <ele>900.011</ele>
        <time>2022-03-22T09:52:32Z</time>
      </trkpt>
      <trkpt lat="37.794338" lon="-2.779284">
        <ele>902.923</ele>
        <time>2022-03-22T09:52:52Z</time>
      </trkpt>
      <trkpt lat="37.794196" lon="-2.779321">
        <ele>902.442</ele>
        <time>2022-03-22T09:53:12Z</time>
      </trkpt>
      <trkpt lat="37.793953" lon="-2.779426">
        <ele>902.010</ele>
        <time>2022-03-22T09:53:32Z</time>
      </trkpt>
      <trkpt lat="37.793781" lon="-2.779544">
        <ele>901.034</ele>
        <time>2022-03-22T09:53:52Z</time>
      </trkpt>
      <trkpt lat="37.793461" lon="-2.779981">
        <ele>901.022</ele>
        <time>2022-03-22T09:54:12Z</time>
      </trkpt>
      <trkpt lat="37.793433" lon="-2.780091">
        <ele>903.450</ele>
        <time>2022-03-22T09:54:32Z</time>
      </trkpt>
      <trkpt lat="37.793455" lon="-2.780131">
        <ele>905.973</ele>
        <time>2022-03-22T09:54:52Z</time>
      </trkpt>
      <trkpt lat="37.793556" lon="-2.779997">
        <ele>905.585</ele>
        <time>2022-03-22T09:55:12Z</time>
      </trkpt>
      <trkpt lat="37.793660" lon="-2.779847">
        <ele>905.313</ele>
        <time>2022-03-22T09:55:32Z</time>
      </trkpt>
      <trkpt lat="37.793796" lon="-2.779697">
        <ele>905.408</ele>
        <time>2022-03-22T09:55:52Z</time>
      </trkpt>
      <trkpt lat="37.793902" lon="-2.779624">
        <ele>906.571</ele>
        <time>2022-03-22T09:56:12Z</time>
      </trkpt>
      <trkpt lat="37.794021" lon="-2.779584">
        <ele>905.822</ele>
        <time>2022-03-22T09:56:32Z</time>
      </trkpt>
      <trkpt lat="37.794180" lon="-2.779525">
        <ele>905.144</ele>
        <time>2022-03-22T09:56:52Z</time>
      </trkpt>
      <trkpt lat="37.794243" lon="-2.779410">
        <ele>903.483</ele>
        <time>2022-03-22T09:57:12Z</time>
      </trkpt>
      <trkpt lat="37.794464" lon="-2.779391">
        <ele>903.391</ele>
        <time>2022-03-22T09:57:32Z</time>
      </trkpt>
      <trkpt lat="37.794480" lon="-2.779340">
        <ele>903.655</ele>
        <time>2022-03-22T09:57:52Z</time>
      </trkpt>
      <trkpt lat="37.794720" lon="-2.779254">
        <ele>906.073</ele>
        <time>2022-03-22T09:58:12Z</time>
      </trkpt>
      <trkpt lat="37.794883" lon="-2.779343">
        <ele>904.771</ele>
        <time>2022-03-22T09:58:32Z</time>
      </trkpt>
      <trkpt lat="37.795015" lon="-2.779439">
        <ele>903.168</ele>
        <time>2022-03-22T09:58:52Z</time>
      </trkpt>
      <trkpt lat="37.795116" lon="-2.779455">
        <ele>902.842</ele>
        <time>2022-03-22T09:59:12Z</time>
      </trkpt>
      <trkpt lat="37.795227" lon="-2.779461">
        <ele>902.626</ele>
        <time>2022-03-22T09:59:32Z</time>
      </trkpt>
      <trkpt lat="37.795273" lon="-2.779364">
        <ele>904.208</ele>
        <time>2022-03-22T09:59:52Z</time>
      </trkpt>
      <trkpt lat="37.795311" lon="-2.779337">
        <ele>904.620</ele>
        <time>2022-03-22T10:00:12Z</time>
      </trkpt>
      <trkpt lat="37.795328" lon="-2.779294">
        <ele>905.251</ele>
        <time>2022-03-22T10:00:32Z</time>
      </trkpt>
      <trkpt lat="37.795335" lon="-2.779233">
        <ele>906.123</ele>
        <time>2022-03-22T10:00:52Z</time>
      </trkpt>
      <trkpt lat="37.795324" lon="-2.779171">
        <ele>906.922</ele>
        <time>2022-03-22T10:01:12Z</time>
      </trkpt>
      <trkpt lat="37.795553" lon="-2.779061">
        <ele>907.030</ele>
        <time>2022-03-22T10:01:32Z</time>
      </trkpt>
      <trkpt lat="37.795701" lon="-2.779026">
        <ele>907.874</ele>
        <time>2022-03-22T10:01:52Z</time>
      </trkpt>
    </trkseg>
  </trk>
</gpx>
